createdAt,value
2018-12-31T00:00:01.124Z,15.8
2018-12-31T00:05:01.118Z,16.3
2018-12-31T00:10:01.119Z,17.2
2018-12-31T00:15:01.107Z,17.3
2018-12-31T00:20:01.105Z,17.8
2018-12-31T00:25:01.145Z,19.2
2018-12-31T00:30:01.105Z,20.8
2018-12-31T00:35:11.258Z,21.1
2018-12-31T00:40:02.473Z,19.8
2018-12-31T00:45:06.179Z,20.1
2018-12-31T00:50:06.132Z,18.3
2018-12-31T00:55:06.187Z,16.6
2018-12-31T01:00:06.132Z,14.9
2018-12-31T01:05:01.252Z,14.4
2018-12-31T01:10:01.143Z,13.5
2018-12-31T01:15:01.230Z,13.7
2018-12-31T01:20:06.118Z,13.9
2018-12-31T01:25:01.174Z,15.3
2018-12-31T01:30:01.111Z,16.2
2018-12-31T01:35:01.237Z,15.8
2018-12-31T01:40:01.112Z,16.4
2018-12-31T01:45:02.009Z,16.0
2018-12-31T01:50:02.068Z,15.8
2018-12-31T01:55:01.175Z,17.1
2018-12-31T02:00:01.178Z,16.6
2018-12-31T02:05:01.240Z,16.1
2018-12-31T02:10:01.115Z,16.0
2018-12-31T02:15:01.143Z,15.3
2018-12-31T02:21:01.160Z,15.5
2018-12-31T02:26:01.134Z,15.7
2018-12-31T02:31:01.230Z,15.8
2018-12-31T02:36:06.109Z,16.8
2018-12-31T02:41:01.233Z,15.8
2018-12-31T02:46:01.117Z,14.0
2018-12-31T02:51:01.175Z,13.8
2018-12-31T02:56:01.107Z,12.6
2018-12-31T03:01:06.188Z,11.8
2018-12-31T03:06:01.136Z,12.0
2018-12-31T03:11:01.201Z,11.5
2018-12-31T03:16:01.193Z,11.3
2018-12-31T03:21:01.231Z,11.8
2018-12-31T03:26:01.152Z,11.5
2018-12-31T03:31:01.381Z,10.9
2018-12-31T03:36:01.150Z,10.7
2018-12-31T03:41:01.162Z,10.2
2018-12-31T03:46:01.163Z,10.3
2018-12-31T03:51:01.217Z,10.1
2018-12-31T03:56:01.140Z,12.1
2018-12-31T04:01:01.271Z,13.0
2018-12-31T04:06:01.136Z,13.5
2018-12-31T04:11:01.271Z,12.8
2018-12-31T04:16:01.143Z,12.5
2018-12-31T04:21:01.208Z,12.0
2018-12-31T04:26:01.144Z,12.2
2018-12-31T04:36:01.241Z,13.2
2018-12-31T04:41:06.181Z,13.0
2018-12-31T04:46:01.122Z,11.9
2018-12-31T04:51:01.244Z,11.0
2018-12-31T05:06:01.230Z,11.8
2018-12-31T05:11:01.258Z,12.3
2018-12-31T05:16:01.111Z,12.7
2018-12-31T05:21:01.234Z,13.6
2018-12-31T05:26:01.108Z,14.2
2018-12-31T05:31:01.174Z,14.0
2018-12-31T05:36:06.114Z,14.2
2018-12-31T05:41:01.201Z,14.0
2018-12-31T05:46:01.139Z,14.8
2018-12-31T05:51:06.184Z,14.5
2018-12-31T05:56:06.126Z,15.6
2018-12-31T06:01:01.198Z,16.0
2018-12-31T06:06:01.102Z,17.2
2018-12-31T06:16:01.234Z,17.6
2018-12-31T06:26:01.233Z,17.1
2018-12-31T06:31:01.107Z,16.2
2018-12-31T06:36:01.109Z,16.5
2018-12-31T06:46:01.238Z,16.1
2018-12-31T06:51:01.173Z,17.0
2018-12-31T07:01:01.211Z,16.9
2018-12-31T07:06:01.148Z,17.0
2018-12-31T07:11:01.218Z,17.4
2018-12-31T07:16:01.139Z,18.3
2018-12-31T07:21:06.195Z,19.4
2018-12-31T07:26:01.159Z,18.8
2018-12-31T07:31:06.186Z,19.0
2018-12-31T07:36:06.119Z,18.4
2018-12-31T07:41:01.129Z,17.2
2018-12-31T07:46:01.108Z,16.9
2018-12-31T07:51:01.167Z,16.7
2018-12-31T07:56:01.108Z,16.9
2018-12-31T08:01:01.172Z,17.6
2018-12-31T08:06:11.115Z,17.4
2018-12-31T08:11:01.137Z,17.0
2018-12-31T08:16:01.144Z,17.8
2018-12-31T08:21:01.225Z,18.0
2018-12-31T08:26:01.144Z,18.1
2018-12-31T08:31:01.273Z,18.5
2018-12-31T08:36:01.116Z,18.2
2018-12-31T08:41:01.187Z,17.2
2018-12-31T08:46:01.116Z,15.6
2018-12-31T08:51:01.864Z,15.8
2018-12-31T08:56:01.106Z,14.3
2018-12-31T09:01:01.169Z,14.0
2018-12-31T09:06:01.110Z,14.5
2018-12-31T09:11:01.171Z,16.3
2018-12-31T09:16:01.106Z,18.9
2018-12-31T09:21:01.236Z,23.1
2018-12-31T09:26:01.148Z,26.2
2018-12-31T09:31:01.176Z,27.8
2018-12-31T09:36:07.146Z,27.7
2018-12-31T09:41:01.190Z,25.0
2018-12-31T09:46:02.145Z,22.5
2018-12-31T09:51:01.247Z,21.2
2018-12-31T09:56:01.205Z,18.2
2018-12-31T10:01:01.251Z,15.8
2018-12-31T10:06:01.120Z,13.8
2018-12-31T10:11:01.187Z,11.5
2018-12-31T10:17:01.102Z,9.3
2018-12-31T10:22:01.170Z,9.2
2018-12-31T10:27:11.114Z,8.4
2018-12-31T10:32:01.170Z,8.7
2018-12-31T10:37:01.114Z,9.1
2018-12-31T10:42:01.237Z,9.6
2018-12-31T10:47:01.107Z,9.1
2018-12-31T10:52:01.178Z,9.6
2018-12-31T10:57:01.116Z,9.0
2018-12-31T11:02:01.115Z,10.0
2018-12-31T11:07:01.118Z,9.7
2018-12-31T11:12:01.248Z,10.2
2018-12-31T11:17:01.111Z,10.5
2018-12-31T11:22:01.182Z,10.9
2018-12-31T11:27:01.102Z,9.9
2018-12-31T11:32:06.216Z,10.0
2018-12-31T11:37:01.129Z,9.7
2018-12-31T11:42:01.231Z,10.2
2018-12-31T11:47:01.106Z,12.1
2018-12-31T11:52:01.236Z,12.4
2018-12-31T11:57:01.107Z,12.2
2018-12-31T12:02:01.252Z,13.3
2018-12-31T12:07:01.106Z,13.2
2018-12-31T12:12:01.118Z,11.6
2018-12-31T12:17:01.093Z,11.7
2018-12-31T12:22:01.244Z,11.2
2018-12-31T12:27:01.121Z,11.0
2018-12-31T12:32:01.178Z,10.6
2018-12-31T12:37:01.162Z,10.9
2018-12-31T12:42:01.172Z,10.8
2018-12-31T12:47:01.103Z,11.8
2018-12-31T12:52:01.233Z,12.1
2018-12-31T12:57:01.108Z,12.6
2018-12-31T13:02:01.177Z,13.5
2018-12-31T13:07:01.110Z,13.3
2018-12-31T13:12:01.182Z,13.7
2018-12-31T13:17:01.220Z,12.8
2018-12-31T13:22:01.242Z,12.2
2018-12-31T13:27:01.106Z,11.0
2018-12-31T13:32:01.233Z,11.2
2018-12-31T13:37:01.132Z,9.8
2018-12-31T13:42:01.167Z,9.0
2018-12-31T13:47:01.107Z,8.6
2018-12-31T13:52:01.173Z,8.4
2018-12-31T13:57:01.106Z,7.8
2018-12-31T14:02:01.235Z,7.6
2018-12-31T14:07:01.109Z,8.6
2018-12-31T14:12:01.174Z,8.9
2018-12-31T14:17:01.149Z,8.8
2018-12-31T14:22:01.182Z,8.7
2018-12-31T14:32:06.272Z,13.2
2018-12-31T14:37:01.115Z,12.8
2018-12-31T14:42:01.313Z,12.0
2018-12-31T14:48:01.109Z,12.2
2018-12-31T14:53:01.166Z,12.9
2018-12-31T14:58:01.103Z,7.8
2018-12-31T15:03:01.173Z,8.8
2018-12-31T15:08:01.212Z,9.4
2018-12-31T15:13:01.234Z,10.0
2018-12-31T15:18:01.139Z,9.6
2018-12-31T15:23:01.212Z,10.2
2018-12-31T15:28:01.145Z,9.8
2018-12-31T15:33:01.274Z,10.1
2018-12-31T15:38:01.148Z,9.6
2018-12-31T15:43:01.270Z,9.9
2018-12-31T15:48:01.116Z,10.4
2018-12-31T15:53:01.241Z,10.9
2018-12-31T15:58:01.115Z,11.5
2018-12-31T16:03:01.184Z,12.0
2018-12-31T16:13:06.192Z,12.4
2018-12-31T16:18:01.119Z,14.0
2018-12-31T16:23:01.302Z,14.5
2018-12-31T16:33:01.295Z,14.8
2018-12-31T16:38:01.093Z,14.3
2018-12-31T16:43:01.177Z,13.5
2018-12-31T16:48:01.102Z,13.6
2018-12-31T16:53:01.232Z,13.8
2018-12-31T16:58:01.104Z,14.0
2018-12-31T17:03:02.332Z,14.6
2018-12-31T17:08:07.339Z,14.2
2018-12-31T17:13:01.283Z,13.8
2018-12-31T17:18:01.148Z,13.4
2018-12-31T17:23:01.274Z,12.6
2018-12-31T17:28:01.151Z,11.4
2018-12-31T17:33:01.435Z,12.1
2018-12-31T17:38:01.138Z,11.7
2018-12-31T17:43:01.205Z,12.3
2018-12-31T17:48:01.147Z,12.6
2018-12-31T17:53:06.197Z,12.7
2018-12-31T17:58:01.143Z,11.7
2018-12-31T18:03:06.182Z,11.2
2018-12-31T18:08:01.103Z,10.0
2018-12-31T18:13:01.237Z,9.7
2018-12-31T18:18:01.115Z,9.3
2018-12-31T18:23:01.177Z,8.9
2018-12-31T18:28:01.114Z,9.1
2018-12-31T18:33:01.163Z,9.5
2018-12-31T18:38:01.099Z,10.3
2018-12-31T18:43:01.232Z,10.7
2018-12-31T18:48:01.117Z,12.0
2018-12-31T18:53:01.168Z,12.7
2018-12-31T18:58:06.113Z,12.3
2018-12-31T19:03:07.169Z,11.4
2018-12-31T19:08:01.141Z,10.8
2018-12-31T19:13:06.180Z,9.9
2018-12-31T19:18:01.105Z,9.0
2018-12-31T19:23:01.174Z,9.8
2018-12-31T19:28:01.114Z,10.9
2018-12-31T19:33:01.181Z,14.6
2018-12-31T19:38:02.148Z,14.8
2018-12-31T19:44:01.387Z,17.4
2018-12-31T19:49:11.113Z,19.5
2018-12-31T19:54:01.233Z,20.0
2018-12-31T19:59:01.103Z,22.5
2018-12-31T20:04:01.168Z,23.6
2018-12-31T20:09:01.105Z,22.9
2018-12-31T20:14:01.172Z,22.1
2018-12-31T20:19:01.113Z,21.6
2018-12-31T20:24:01.240Z,17.0
2018-12-31T20:29:01.117Z,17.9
2018-12-31T20:34:01.203Z,16.7
2018-12-31T20:39:01.126Z,15.2
2018-12-31T20:44:01.283Z,15.3
2018-12-31T20:49:01.141Z,14.3
2018-12-31T20:54:01.277Z,11.4
2018-12-31T20:59:01.142Z,11.5
2018-12-31T21:04:01.141Z,12.4
2018-12-31T21:09:01.136Z,11.9
2018-12-31T21:14:01.172Z,12.3
2018-12-31T21:19:01.273Z,12.5
2018-12-31T21:24:01.176Z,12.7
2018-12-31T21:29:01.116Z,12.5
2018-12-31T21:34:06.189Z,12.0
2018-12-31T21:39:01.113Z,13.4
2018-12-31T21:44:01.184Z,14.1
2018-12-31T21:49:01.109Z,13.8
2018-12-31T21:54:01.170Z,14.2
2018-12-31T21:59:01.103Z,16.1
2018-12-31T22:04:01.105Z,14.8
2018-12-31T22:09:01.109Z,15.8
2018-12-31T22:14:01.233Z,16.4
2018-12-31T22:19:01.099Z,16.1
2018-12-31T22:24:01.164Z,15.4
2018-12-31T22:29:01.142Z,15.7
2018-12-31T22:34:01.270Z,15.4
2018-12-31T22:39:01.138Z,15.0
2018-12-31T22:44:06.179Z,14.4
2018-12-31T22:49:01.152Z,13.5
2018-12-31T22:54:01.217Z,12.6
2018-12-31T22:59:01.152Z,11.3
2018-12-31T23:04:01.287Z,14.5
2018-12-31T23:09:02.126Z,25.4
2018-12-31T23:14:01.238Z,39.0
2018-12-31T23:19:01.103Z,50.4
2018-12-31T23:24:01.106Z,64.8
2018-12-31T23:29:01.104Z,66.0
2018-12-31T23:34:01.276Z,58.5
2018-12-31T23:39:05.116Z,50.0
2018-12-31T23:44:01.170Z,42.6
2018-12-31T23:49:01.101Z,31.5
2018-12-31T23:54:01.209Z,35.8
2018-12-31T23:59:01.107Z,35.2
